createdAt,value
2018-07-08T00:06:06.501Z,15.80
2018-07-08T00:08:34.421Z,15.80
2018-07-08T00:11:03.062Z,15.80
2018-07-08T00:13:30.993Z,15.80
2018-07-08T00:15:58.868Z,15.80
2018-07-08T00:20:55.542Z,15.90
2018-07-08T00:25:52.207Z,15.90
2018-07-08T00:30:48.739Z,15.70
2018-07-08T00:33:16.600Z,15.80
2018-07-08T00:35:44.486Z,15.80
2018-07-08T00:40:40.131Z,15.80
2018-07-08T00:43:08.015Z,15.90
2018-07-08T00:45:35.995Z,15.90
2018-07-08T00:48:03.936Z,15.80
2018-07-08T00:50:31.837Z,15.80
2018-07-08T00:52:59.729Z,15.80
2018-07-08T00:55:28.036Z,15.80
2018-07-08T00:57:55.972Z,15.70
2018-07-08T01:00:33.298Z,15.70
2018-07-08T01:05:30.503Z,15.70
2018-07-08T01:07:59.136Z,15.60
2018-07-08T01:10:27.531Z,15.60
2018-07-08T01:12:56.225Z,15.60
2018-07-08T01:15:24.432Z,15.60
2018-07-08T01:17:52.437Z,15.50
2018-07-08T01:22:48.955Z,15.40
2018-07-08T01:25:18.420Z,15.50
2018-07-08T01:27:46.417Z,15.50
2018-07-08T01:30:15.226Z,15.70
2018-07-08T01:32:43.116Z,15.70
2018-07-08T01:35:11.074Z,15.80
2018-07-08T01:37:39.631Z,15.80
2018-07-08T01:40:07.584Z,15.80
2018-07-08T01:42:35.467Z,15.90
2018-07-08T01:45:03.469Z,15.80
2018-07-08T01:49:59.117Z,15.80
2018-07-08T01:52:27.023Z,15.80
2018-07-08T01:54:55.789Z,15.80
2018-07-08T01:59:52.514Z,15.80
2018-07-08T02:02:21.203Z,15.80
2018-07-08T02:04:49.893Z,15.80
2018-07-08T02:07:17.874Z,15.70
2018-07-08T02:09:46.439Z,15.70
2018-07-08T02:12:14.919Z,15.80
2018-07-08T02:14:43.298Z,15.90
2018-07-08T02:17:11.278Z,15.80
2018-07-08T02:22:08.062Z,15.80
2018-07-08T02:24:36.054Z,15.80
2018-07-08T02:27:04.374Z,15.70
2018-07-08T02:29:33.087Z,15.70
2018-07-08T02:32:01.699Z,15.80
2018-07-08T02:34:30.077Z,15.80
2018-07-08T02:36:58.427Z,15.80
2018-07-08T02:41:54.783Z,15.70
2018-07-08T02:44:22.731Z,15.70
2018-07-08T02:49:19.892Z,15.70
2018-07-08T02:51:47.923Z,15.70
2018-07-08T02:54:15.954Z,15.70
2018-07-08T02:56:43.961Z,15.70
2018-07-08T02:59:11.838Z,15.60
2018-07-08T03:01:39.744Z,15.60
2018-07-08T03:04:08.150Z,15.50
2018-07-08T03:06:36.118Z,15.40
2018-07-08T03:09:05.071Z,15.30
2018-07-08T03:11:32.972Z,15.30
2018-07-08T03:14:00.931Z,15.30
2018-07-08T03:16:28.855Z,15.40
2018-07-08T03:18:56.747Z,15.40
2018-07-08T03:21:24.650Z,15.40
2018-07-08T03:23:52.588Z,15.50
2018-07-08T03:28:48.421Z,15.40
2018-07-08T03:31:16.412Z,15.40
2018-07-08T03:36:12.758Z,15.50
2018-07-08T03:38:40.834Z,15.50
2018-07-08T03:43:36.452Z,15.50
2018-07-08T03:48:33.082Z,15.60
2018-07-08T03:51:00.991Z,15.60
2018-07-08T03:55:56.601Z,15.70
2018-07-08T03:58:24.461Z,15.60
2018-07-08T04:00:52.354Z,15.70
2018-07-08T04:03:21.208Z,15.60
2018-07-08T04:05:49.151Z,15.70
2018-07-08T04:08:17.103Z,15.70
2018-07-08T04:10:44.991Z,15.70
2018-07-08T04:13:13.113Z,15.80
2018-07-08T04:18:09.450Z,16.00
2018-07-08T04:23:06.919Z,16.10
2018-07-08T04:25:34.820Z,16.10
2018-07-08T04:33:00.443Z,16.40
2018-07-08T04:42:52.840Z,16.80
2018-07-08T04:45:20.860Z,16.90
2018-07-08T04:47:48.774Z,17.00
2018-07-08T04:50:16.727Z,17.00
2018-07-08T04:57:40.487Z,17.30
2018-07-08T05:00:08.529Z,17.40
2018-07-08T05:02:36.436Z,17.40
2018-07-08T05:05:04.771Z,17.50
2018-07-08T05:10:00.473Z,17.50
2018-07-08T05:12:28.383Z,17.60
2018-07-08T05:14:56.549Z,17.70
2018-07-08T05:17:24.467Z,17.70
2018-07-08T05:22:21.069Z,17.80
2018-07-08T05:24:49.093Z,17.80
2018-07-08T05:27:16.988Z,17.90
2018-07-08T05:29:45.720Z,18.00
2018-07-08T05:32:13.714Z,18.00
2018-07-08T05:34:41.619Z,17.90
2018-07-08T05:37:10.340Z,17.90
2018-07-08T05:39:38.708Z,18.10
2018-07-08T05:44:35.250Z,18.30
2018-07-08T05:47:03.208Z,18.40
2018-07-08T05:49:31.096Z,18.50
2018-07-08T05:51:59.579Z,18.60
2018-07-08T05:54:27.469Z,18.40
2018-07-08T05:56:55.325Z,18.50
2018-07-08T05:59:23.207Z,18.70
2018-07-08T06:01:51.893Z,18.90
2018-07-08T06:04:20.404Z,18.90
2018-07-08T06:06:48.492Z,19.00
2018-07-08T06:09:16.498Z,19.00
2018-07-08T06:11:44.364Z,19.20
2018-07-08T06:14:12.311Z,19.60
2018-07-08T06:16:40.218Z,20.00
2018-07-08T06:19:08.132Z,20.10
2018-07-08T06:21:36.224Z,20.40
2018-07-08T06:24:04.882Z,20.30
2018-07-08T06:26:32.784Z,20.40
2018-07-08T06:33:58.846Z,20.70
2018-07-08T06:38:54.546Z,21.10
2018-07-08T06:43:50.304Z,21.40
2018-07-08T06:48:46.967Z,21.20
2018-07-08T06:51:14.912Z,21.10
2018-07-08T06:56:10.611Z,21.20
2018-07-08T06:58:39.565Z,21.50
2018-07-08T07:01:07.494Z,21.50
2018-07-08T07:03:35.416Z,21.70
2018-07-08T07:06:03.606Z,22.00
2018-07-08T07:08:32.109Z,22.20
2018-07-08T07:11:00.613Z,22.40
2018-07-08T07:13:28.745Z,22.40
2018-07-08T07:15:57.287Z,22.70
2018-07-08T07:18:25.154Z,23.00
2018-07-08T07:20:53.014Z,23.40
2018-07-08T07:23:20.945Z,23.60
2018-07-08T07:25:48.863Z,23.90
2018-07-08T07:28:16.774Z,24.10
2018-07-08T07:30:44.665Z,24.20
2018-07-08T07:33:13.196Z,24.10
2018-07-08T07:35:41.082Z,23.90
2018-07-08T07:38:09.302Z,23.80
2018-07-08T07:43:04.982Z,23.50
2018-07-08T07:48:00.599Z,23.40
2018-07-08T07:50:28.714Z,23.50
2018-07-08T07:52:56.586Z,23.50
2018-07-08T07:55:24.524Z,23.60
2018-07-08T07:57:52.536Z,23.50
2018-07-08T08:05:16.261Z,23.80
2018-07-08T08:10:11.955Z,23.70
2018-07-08T08:12:39.955Z,23.70
2018-07-08T08:17:36.147Z,23.50
2018-07-08T08:20:04.434Z,23.40
2018-07-08T08:22:32.375Z,23.10
2018-07-08T08:25:00.292Z,23.20
2018-07-08T08:27:28.244Z,23.10
2018-07-08T08:34:54.854Z,23.10
2018-07-08T08:37:24.969Z,23.20
2018-07-08T08:39:53.456Z,23.30
2018-07-08T08:44:50.616Z,23.40
2018-07-08T08:52:16.756Z,23.40
2018-07-08T08:54:45.315Z,23.40
2018-07-08T08:57:13.631Z,23.40
2018-07-08T08:59:42.198Z,23.60
2018-07-08T09:02:10.351Z,23.50
2018-07-08T09:04:39.290Z,23.50
2018-07-08T09:07:08.099Z,23.70
2018-07-08T09:09:36.260Z,23.60
2018-07-08T09:12:05.152Z,23.50
2018-07-08T09:14:33.553Z,23.50
2018-07-08T09:17:01.650Z,23.40
2018-07-08T09:19:31.146Z,23.40
2018-07-08T09:21:59.060Z,23.40
2018-07-08T09:26:55.108Z,23.50
2018-07-08T09:29:24.688Z,23.50
2018-07-08T09:31:52.789Z,23.40
2018-07-08T09:34:20.840Z,23.50
2018-07-08T09:36:48.757Z,23.50
2018-07-08T09:39:16.992Z,23.60
2018-07-08T09:41:46.112Z,23.50
2018-07-08T09:44:15.086Z,23.60
2018-07-08T09:49:12.459Z,23.70
2018-07-08T09:51:40.728Z,23.80
2018-07-08T09:54:08.826Z,23.90
2018-07-08T09:56:36.752Z,24.00
2018-07-08T09:59:05.053Z,24.20
2018-07-08T10:04:07.430Z,24.50
2018-07-08T10:06:35.312Z,24.50
2018-07-08T10:09:04.614Z,24.50
2018-07-08T10:11:32.501Z,24.30
2018-07-08T10:16:28.423Z,24.40
2018-07-08T10:21:25.119Z,24.70
2018-07-08T10:23:52.961Z,24.50
2018-07-08T10:26:20.848Z,24.50
2018-07-08T10:28:48.870Z,24.80
2018-07-08T10:31:17.286Z,25.00
2018-07-08T10:33:54.558Z,25.00
2018-07-08T10:38:50.289Z,25.30
2018-07-08T10:41:18.338Z,25.30
2018-07-08T10:43:46.250Z,25.40
2018-07-08T10:46:14.124Z,25.60
2018-07-08T10:51:10.147Z,25.40
2018-07-08T10:56:06.071Z,25.50
2018-07-08T11:03:30.593Z,25.20
2018-07-08T11:05:58.656Z,25.10
2018-07-08T11:13:22.380Z,24.60
2018-07-08T11:18:19.212Z,24.50
2018-07-08T11:20:47.120Z,24.50
2018-07-08T11:23:15.072Z,24.50
2018-07-08T11:28:12.237Z,24.30
2018-07-08T11:30:40.408Z,24.20
2018-07-08T11:33:08.993Z,24.20
2018-07-08T11:35:36.927Z,24.10
2018-07-08T11:38:05.749Z,24.10
2018-07-08T11:40:33.820Z,24.30
2018-07-08T11:45:29.524Z,24.50
2018-07-08T11:47:57.448Z,24.50
2018-07-08T11:50:25.473Z,24.30
2018-07-08T11:52:53.382Z,24.40
2018-07-08T11:55:21.527Z,24.50
2018-07-08T11:57:49.503Z,24.40
2018-07-08T12:02:45.915Z,24.50
2018-07-08T12:05:13.885Z,24.50
2018-07-08T12:07:41.820Z,24.40
2018-07-08T12:10:09.763Z,24.30
2018-07-08T12:12:37.630Z,24.40
2018-07-08T12:15:06.267Z,24.50
2018-07-08T12:17:34.153Z,24.70
2018-07-08T12:20:02.124Z,24.90
2018-07-08T12:22:30.049Z,24.90
2018-07-08T12:24:57.958Z,25.00
2018-07-08T12:27:25.865Z,25.00
2018-07-08T12:37:17.411Z,24.90
2018-07-08T12:39:45.340Z,25.10
2018-07-08T12:42:13.223Z,25.20
2018-07-08T12:44:41.247Z,25.20
2018-07-08T12:47:09.104Z,25.10
2018-07-08T12:52:04.797Z,24.90
2018-07-08T12:54:32.711Z,24.70
2018-07-08T12:57:00.674Z,24.70
2018-07-08T13:01:56.598Z,24.70
2018-07-08T13:04:24.828Z,24.60
2018-07-08T13:06:53.164Z,24.60
2018-07-08T13:16:46.223Z,25.00
2018-07-08T13:19:14.460Z,25.00
2018-07-08T13:21:42.380Z,24.90
2018-07-08T13:24:11.071Z,24.70
2018-07-08T13:26:38.959Z,24.50
2018-07-08T13:31:35.296Z,24.50
2018-07-08T13:34:03.209Z,24.40
2018-07-08T13:36:31.099Z,24.40
2018-07-08T13:38:59.060Z,24.30
2018-07-08T13:41:26.886Z,24.40
2018-07-08T13:43:54.804Z,24.30
2018-07-08T13:46:22.759Z,24.20
2018-07-08T13:48:50.658Z,24.30
2018-07-08T13:51:18.633Z,24.40
2018-07-08T13:53:47.157Z,24.40
2018-07-08T13:56:15.548Z,24.50
2018-07-08T13:58:43.482Z,24.50
2018-07-08T14:03:39.355Z,24.80
2018-07-08T14:06:07.250Z,25.20
2018-07-08T14:08:35.739Z,25.50
2018-07-08T14:11:03.664Z,25.40
2018-07-08T14:13:31.582Z,25.40
2018-07-08T14:15:59.579Z,25.10
2018-07-08T14:20:56.055Z,24.90
2018-07-08T14:23:23.983Z,24.80
2018-07-08T14:25:51.935Z,24.70
2018-07-08T14:30:48.514Z,24.70
2018-07-08T14:33:16.426Z,24.70
2018-07-08T14:35:44.390Z,24.70
2018-07-08T14:38:12.923Z,24.80
2018-07-08T14:40:41.042Z,24.70
2018-07-08T14:45:37.673Z,24.60
2018-07-08T14:50:35.619Z,24.70
2018-07-08T14:53:03.531Z,24.80
2018-07-08T14:57:59.226Z,25.10
2018-07-08T15:00:27.363Z,25.10
2018-07-08T15:02:55.375Z,25.10
2018-07-08T15:05:23.531Z,25.00
2018-07-08T15:07:52.274Z,24.90
2018-07-08T15:12:48.813Z,24.90
2018-07-08T15:17:45.192Z,24.90
2018-07-08T15:20:13.149Z,24.80
2018-07-08T15:22:41.112Z,24.70
2018-07-08T15:25:09.620Z,24.70
2018-07-08T15:27:37.525Z,24.70
2018-07-08T15:30:05.834Z,24.80
2018-07-08T15:32:33.797Z,24.70
2018-07-08T15:35:02.354Z,24.70
2018-07-08T15:37:30.362Z,24.70
2018-07-08T15:39:58.460Z,24.70
2018-07-08T15:42:26.373Z,24.70
2018-07-08T15:44:54.558Z,24.80
2018-07-08T15:47:22.612Z,24.70
2018-07-08T15:49:50.504Z,24.70
2018-07-08T15:52:18.439Z,24.80
2018-07-08T15:54:46.668Z,24.70
2018-07-08T15:57:15.837Z,24.70
2018-07-08T16:02:11.800Z,24.40
2018-07-08T16:04:39.876Z,24.40
2018-07-08T16:07:07.800Z,24.40
2018-07-08T16:09:36.729Z,24.30
2018-07-08T16:14:32.469Z,24.40
2018-07-08T16:19:28.531Z,24.30
2018-07-08T16:21:56.783Z,24.30
2018-07-08T16:24:24.811Z,24.30
2018-07-08T16:26:52.917Z,24.30
2018-07-08T16:31:48.735Z,24.30
2018-07-08T16:34:16.740Z,24.40
2018-07-08T16:36:44.915Z,24.40
2018-07-08T16:39:13.298Z,24.40
2018-07-08T16:41:41.332Z,24.40
2018-07-08T16:44:09.224Z,24.40
2018-07-08T16:51:32.693Z,24.30
2018-07-08T16:54:00.673Z,24.30
2018-07-08T16:58:57.268Z,24.20
2018-07-08T17:01:25.432Z,24.20
2018-07-08T17:03:53.796Z,24.10
2018-07-08T17:06:22.688Z,24.00
2018-07-08T17:08:51.454Z,24.00
2018-07-08T17:13:47.366Z,24.00
2018-07-08T17:16:15.481Z,23.90
2018-07-08T17:18:43.434Z,23.90
2018-07-08T17:21:11.433Z,23.80
2018-07-08T17:23:39.360Z,23.70
2018-07-08T17:26:07.339Z,23.70
2018-07-08T17:28:35.407Z,23.60
2018-07-08T17:35:59.720Z,23.50
2018-07-08T17:38:28.778Z,23.50
2018-07-08T17:40:57.051Z,23.50
2018-07-08T17:43:24.987Z,23.40
2018-07-08T17:45:52.889Z,23.30
2018-07-08T17:48:20.851Z,23.30
2018-07-08T17:50:49.012Z,23.20
2018-07-08T17:53:17.172Z,23.20
2018-07-08T17:58:13.277Z,23.10
2018-07-08T18:00:41.306Z,23.10
2018-07-08T18:03:09.417Z,23.10
2018-07-08T18:05:37.651Z,23.10
2018-07-08T18:15:30.270Z,22.80
2018-07-08T18:17:58.592Z,22.80
2018-07-08T18:20:26.536Z,22.70
2018-07-08T18:25:22.788Z,22.60
2018-07-08T18:27:52.863Z,22.50
2018-07-08T18:30:20.775Z,22.50
2018-07-08T18:32:48.997Z,22.50
2018-07-08T18:35:16.942Z,22.50
2018-07-08T18:40:13.400Z,22.50
2018-07-08T18:45:10.783Z,22.40
2018-07-08T18:50:06.571Z,22.50
2018-07-08T18:52:34.513Z,22.50
2018-07-08T18:55:03.135Z,22.50
2018-07-08T18:57:31.160Z,22.50
2018-07-08T18:59:59.305Z,22.40
2018-07-08T19:04:55.158Z,22.20
2018-07-08T19:09:50.897Z,22.10
2018-07-08T19:14:46.978Z,22.00
2018-07-08T19:17:14.932Z,21.90
2018-07-08T19:19:42.969Z,21.90
2018-07-08T19:22:10.896Z,21.90
2018-07-08T19:24:39.343Z,21.90
2018-07-08T19:27:07.667Z,21.90
2018-07-08T19:32:03.854Z,21.70
2018-07-08T19:41:56.850Z,21.40
2018-07-08T19:44:25.502Z,21.30
2018-07-08T19:46:55.255Z,21.20
2018-07-08T19:49:23.786Z,21.20
2018-07-08T19:51:52.153Z,21.30
2018-07-08T19:54:21.133Z,21.20
2018-07-08T19:56:50.215Z,21.10
2018-07-08T19:59:18.132Z,20.90
2018-07-08T20:01:46.219Z,20.70
2018-07-08T20:09:11.534Z,20.50
2018-07-08T20:11:40.920Z,20.50
2018-07-08T20:14:08.896Z,20.50
2018-07-08T20:16:37.106Z,20.50
2018-07-08T20:21:33.293Z,20.50
2018-07-08T20:24:01.315Z,20.60
2018-07-08T20:28:57.085Z,20.50
2018-07-08T20:31:25.117Z,20.40
2018-07-08T20:36:21.736Z,20.30
2018-07-08T20:38:49.691Z,20.30
2018-07-08T20:43:46.907Z,20.40
2018-07-08T20:48:44.691Z,20.40
2018-07-08T20:51:13.588Z,20.40
2018-07-08T20:53:41.875Z,20.40
2018-07-08T20:58:37.602Z,20.40
2018-07-08T21:01:05.524Z,20.40
2018-07-08T21:06:01.844Z,20.30
2018-07-08T21:08:29.991Z,20.30
2018-07-08T21:13:26.170Z,20.40
2018-07-08T21:15:54.815Z,20.40
2018-07-08T21:18:23.396Z,20.40
2018-07-08T21:20:52.260Z,20.30
2018-07-08T21:23:20.256Z,20.30
2018-07-08T21:25:49.147Z,20.30
2018-07-08T21:30:44.931Z,20.30
2018-07-08T21:33:13.525Z,20.30
2018-07-08T21:35:41.456Z,20.30
2018-07-08T21:38:09.365Z,20.30
2018-07-08T21:40:37.433Z,20.30
2018-07-08T21:43:05.569Z,20.30
2018-07-08T21:45:33.752Z,20.30
2018-07-08T21:48:04.945Z,20.30
2018-07-08T21:50:33.065Z,20.20
2018-07-08T21:53:01.125Z,20.30
2018-07-08T21:57:56.831Z,20.30
2018-07-08T22:00:30.386Z,20.10
2018-07-08T22:02:58.722Z,20.10
2018-07-08T22:08:03.160Z,20.00
2018-07-08T22:10:32.020Z,19.80
2018-07-08T22:13:01.687Z,19.80
2018-07-08T22:15:30.010Z,19.70
2018-07-08T22:17:57.992Z,19.80
2018-07-08T22:20:26.608Z,19.80
2018-07-08T22:22:54.517Z,19.70
2018-07-08T22:25:22.418Z,19.70
2018-07-08T22:27:50.358Z,19.70
2018-07-08T22:30:18.246Z,19.60
2018-07-08T22:32:46.300Z,19.80
2018-07-08T22:35:14.309Z,19.80
2018-07-08T22:37:42.224Z,19.80
2018-07-08T22:40:10.159Z,19.60
2018-07-08T22:47:34.071Z,19.50
2018-07-08T22:50:02.029Z,19.50
2018-07-08T22:52:29.894Z,19.50
2018-07-08T22:54:57.839Z,19.50
2018-07-08T22:57:26.599Z,19.50
2018-07-08T23:00:05.665Z,19.40
2018-07-08T23:02:46.919Z,19.40
2018-07-08T23:05:15.550Z,19.30
2018-07-08T23:07:43.420Z,19.30
2018-07-08T23:10:12.002Z,19.30
2018-07-08T23:12:39.867Z,19.30
2018-07-08T23:17:35.599Z,19.30
2018-07-08T23:25:06.388Z,19.30
2018-07-08T23:27:34.287Z,19.30
2018-07-08T23:30:02.426Z,19.20
2018-07-08T23:32:30.367Z,19.10
2018-07-08T23:34:59.264Z,19.10
2018-07-08T23:37:27.266Z,19.10
2018-07-08T23:39:55.199Z,19.00
2018-07-08T23:42:23.485Z,19.00
2018-07-08T23:49:47.311Z,18.60
2018-07-08T23:52:15.254Z,18.50
2018-07-08T23:57:10.981Z,18.30
